createdAt,value
2022-07-31T00:01:51.664Z,84.39
2022-07-31T00:06:51.589Z,84.19
2022-07-31T00:11:51.521Z,84.13
2022-07-31T00:16:51.465Z,84.23
2022-07-31T00:21:51.404Z,84.43
2022-07-31T00:26:52.698Z,84.67
2022-07-31T00:31:51.266Z,84.88
2022-07-31T00:36:51.208Z,84.97
2022-07-31T00:41:51.141Z,85.08
2022-07-31T00:46:51.068Z,85.28
2022-07-31T00:51:51.029Z,85.28
2022-07-31T00:56:50.940Z,85.52
2022-07-31T01:01:50.887Z,85.72
2022-07-31T01:06:50.826Z,85.92
2022-07-31T01:11:50.947Z,86.36
2022-07-31T01:16:50.702Z,86.36
2022-07-31T01:21:50.629Z,86.36
2022-07-31T01:26:50.652Z,86.57
2022-07-31T01:31:50.643Z,86.77
2022-07-31T01:36:50.478Z,87.17
2022-07-31T01:41:50.430Z,87.17
2022-07-31T01:46:50.327Z,87.27
2022-07-31T01:51:50.277Z,87.27
2022-07-31T01:56:50.204Z,87.27
2022-07-31T02:01:50.766Z,87.21
2022-07-31T02:06:50.077Z,87.31
2022-07-31T02:11:54.676Z,87.31
2022-07-31T02:16:50.943Z,87.41
2022-07-31T02:21:49.883Z,87.41
2022-07-31T02:26:49.831Z,87.55
2022-07-31T02:32:03.141Z,87.45
2022-07-31T02:36:50.704Z,87.35
2022-07-31T02:41:49.625Z,87.49
2022-07-31T02:46:49.575Z,87.80
2022-07-31T02:51:49.523Z,88.10
2022-07-31T02:56:49.447Z,88.10
2022-07-31T03:01:49.416Z,88.10
2022-07-31T03:06:49.319Z,87.80
2022-07-31T03:11:49.294Z,87.74
2022-07-31T03:16:49.203Z,87.84
2022-07-31T03:21:49.140Z,87.63
2022-07-31T03:26:49.074Z,87.54
2022-07-31T03:31:49.030Z,87.58
2022-07-31T03:36:48.951Z,87.78
2022-07-31T03:41:48.932Z,87.88
2022-07-31T03:46:48.820Z,88.18
2022-07-31T03:51:48.770Z,88.39
2022-07-31T03:56:48.855Z,88.43
2022-07-31T04:01:56.663Z,88.53
2022-07-31T04:06:49.547Z,88.63
2022-07-31T04:11:48.494Z,88.73
2022-07-31T04:16:48.416Z,88.63
2022-07-31T04:21:48.368Z,88.43
2022-07-31T04:26:48.299Z,88.43
2022-07-31T04:31:48.229Z,88.28
2022-07-31T04:36:48.161Z,88.83
2022-07-31T04:41:48.121Z,89.09
2022-07-31T04:46:48.032Z,89.50
2022-07-31T04:51:48.001Z,89.95
2022-07-31T04:56:47.898Z,90.16
2022-07-31T05:01:47.927Z,90.11
2022-07-31T05:06:47.783Z,90.22
2022-07-31T05:11:47.727Z,90.11
2022-07-31T05:16:47.665Z,90.17
2022-07-31T05:22:03.719Z,90.37
2022-07-31T05:26:48.526Z,90.64
2022-07-31T05:31:59.872Z,90.69
2022-07-31T05:36:48.410Z,90.34
2022-07-31T05:41:47.754Z,89.90
2022-07-31T05:46:47.332Z,89.22
2022-07-31T05:51:47.298Z,88.67
2022-07-31T05:56:47.171Z,87.38
2022-07-31T06:01:47.187Z,85.89
2022-07-31T06:06:47.032Z,84.15
2022-07-31T06:11:46.979Z,83.65
2022-07-31T06:16:46.912Z,83.51
2022-07-31T06:21:46.880Z,83.61
2022-07-31T06:26:46.781Z,83.61
2022-07-31T06:31:46.711Z,82.87
2022-07-31T06:36:46.661Z,82.37
2022-07-31T06:41:46.580Z,81.83
2022-07-31T06:46:49.097Z,81.33
2022-07-31T06:51:46.462Z,81.23
2022-07-31T06:56:46.415Z,81.13
2022-07-31T07:01:46.384Z,80.89
2022-07-31T07:06:46.275Z,80.79
2022-07-31T07:11:46.229Z,80.69
2022-07-31T07:16:46.160Z,79.96
2022-07-31T07:21:46.209Z,79.35
2022-07-31T07:26:46.167Z,78.96
2022-07-31T07:31:46.010Z,78.16
2022-07-31T07:36:45.944Z,77.22
2022-07-31T07:41:45.864Z,75.98
2022-07-31T07:46:45.793Z,75.15
2022-07-31T07:51:58.929Z,74.62
2022-07-31T07:56:46.647Z,73.38
2022-07-31T08:01:45.597Z,72.35
2022-07-31T08:06:45.533Z,71.51
2022-07-31T08:11:45.482Z,70.29
2022-07-31T08:16:45.413Z,69.66
2022-07-31T08:21:45.360Z,69.23
2022-07-31T08:26:45.315Z,67.21
2022-07-31T08:31:49.566Z,65.78
2022-07-31T08:36:45.149Z,65.35
2022-07-31T08:41:45.105Z,63.97
2022-07-31T08:46:45.046Z,62.23
2022-07-31T08:51:51.268Z,61.44
2022-07-31T08:56:45.901Z,58.59
2022-07-31T09:01:44.845Z,57.15
2022-07-31T09:06:44.792Z,56.60
2022-07-31T09:11:44.744Z,55.07
2022-07-31T09:16:44.659Z,54.03
2022-07-31T09:21:44.607Z,53.02
2022-07-31T09:26:44.548Z,51.32
2022-07-31T09:31:44.481Z,49.70
2022-07-31T09:36:44.414Z,50.14
2022-07-31T09:41:56.282Z,48.43
2022-07-31T09:46:45.442Z,47.11
2022-07-31T09:51:44.264Z,46.81
2022-07-31T09:56:44.185Z,47.28
2022-07-31T10:01:44.143Z,46.18
2022-07-31T10:06:44.079Z,45.50
2022-07-31T10:11:44.001Z,45.97
2022-07-31T10:16:43.954Z,46.16
2022-07-31T10:21:43.933Z,45.84
2022-07-31T10:27:00.299Z,44.84
2022-07-31T10:31:44.788Z,44.94
2022-07-31T10:36:43.728Z,45.06
2022-07-31T10:41:44.022Z,43.99
2022-07-31T10:46:43.627Z,42.97
2022-07-31T10:51:43.573Z,42.24
2022-07-31T10:56:43.500Z,41.52
2022-07-31T11:01:43.501Z,40.23
2022-07-31T11:06:44.417Z,41.26
2022-07-31T11:11:43.325Z,39.69
2022-07-31T11:16:43.379Z,38.70
2022-07-31T11:21:43.190Z,39.18
2022-07-31T11:26:43.237Z,40.06
2022-07-31T11:31:43.168Z,38.09
2022-07-31T11:36:43.181Z,38.39
2022-07-31T11:41:44.436Z,37.98
2022-07-31T11:46:42.931Z,37.10
2022-07-31T11:51:42.871Z,37.34
2022-07-31T11:56:42.793Z,36.85
2022-07-31T12:01:42.766Z,36.44
2022-07-31T12:06:42.662Z,36.93
2022-07-31T12:11:42.648Z,36.93
2022-07-31T12:16:42.551Z,36.24
2022-07-31T12:21:42.522Z,36.98
2022-07-31T12:26:42.461Z,37.81
2022-07-31T12:31:42.390Z,37.85
2022-07-31T12:36:42.304Z,38.04
2022-07-31T12:41:42.282Z,38.79
2022-07-31T12:46:42.206Z,37.50
2022-07-31T12:51:45.111Z,37.60
2022-07-31T12:56:42.134Z,37.83
2022-07-31T13:01:42.151Z,38.34
2022-07-31T13:06:41.980Z,39.36
2022-07-31T13:11:45.983Z,39.94
2022-07-31T13:16:42.859Z,38.67
2022-07-31T13:21:48.850Z,38.51
2022-07-31T13:26:42.729Z,39.49
2022-07-31T13:31:41.654Z,39.78
2022-07-31T13:36:41.636Z,39.28
2022-07-31T13:41:41.530Z,40.04
2022-07-31T13:46:41.508Z,39.51
2022-07-31T13:51:41.448Z,37.85
2022-07-31T13:56:42.814Z,37.13
2022-07-31T14:02:04.573Z,36.24
2022-07-31T14:06:42.269Z,34.88
2022-07-31T14:11:41.180Z,35.57
2022-07-31T14:16:41.176Z,35.82
2022-07-31T14:21:41.076Z,36.52
2022-07-31T14:26:42.061Z,37.40
2022-07-31T14:31:40.947Z,38.06
2022-07-31T14:36:40.937Z,38.75
2022-07-31T14:41:40.823Z,38.28
2022-07-31T14:46:40.837Z,38.79
2022-07-31T14:51:40.724Z,39.10
2022-07-31T14:57:00.180Z,39.53
2022-07-31T15:01:41.736Z,39.25
2022-07-31T15:06:56.164Z,39.76
2022-07-31T15:11:59.026Z,40.35
2022-07-31T15:16:41.410Z,41.64
2022-07-31T15:21:40.370Z,40.68
2022-07-31T15:26:40.286Z,40.68
2022-07-31T15:31:40.248Z,41.86
2022-07-31T15:36:40.167Z,40.61
2022-07-31T15:41:40.127Z,40.82
2022-07-31T15:46:40.057Z,41.41
2022-07-31T15:51:40.002Z,42.02
2022-07-31T15:56:39.980Z,42.33
2022-07-31T16:01:39.963Z,41.96
2022-07-31T16:06:39.824Z,42.94
2022-07-31T16:12:03.891Z,43.06
2022-07-31T16:16:45.526Z,42.96
2022-07-31T16:21:40.615Z,43.87
2022-07-31T16:26:39.582Z,44.26
2022-07-31T16:31:39.498Z,44.88
2022-07-31T16:36:39.461Z,45.29
2022-07-31T16:41:39.373Z,45.81
2022-07-31T16:46:40.337Z,46.40
2022-07-31T16:51:39.252Z,46.89
2022-07-31T16:56:39.212Z,46.69
2022-07-31T17:01:57.110Z,47.11
2022-07-31T17:06:40.152Z,47.53
2022-07-31T17:11:38.994Z,47.43
2022-07-31T17:16:42.252Z,47.63
2022-07-31T17:21:43.868Z,47.55
2022-07-31T17:26:38.820Z,48.24
2022-07-31T17:31:38.800Z,48.34
2022-07-31T17:36:38.715Z,48.83
2022-07-31T17:41:38.674Z,48.86
2022-07-31T17:46:48.155Z,49.55
2022-07-31T17:51:39.540Z,49.18
2022-07-31T17:56:39.456Z,49.96
2022-07-31T18:01:38.438Z,50.19
2022-07-31T18:06:38.344Z,50.61
2022-07-31T18:11:38.349Z,50.81
2022-07-31T18:16:38.226Z,51.40
2022-07-31T18:21:38.200Z,51.62
2022-07-31T18:26:38.083Z,51.84
2022-07-31T18:31:38.040Z,52.44
2022-07-31T18:36:37.979Z,52.96
2022-07-31T18:41:37.917Z,52.86
2022-07-31T18:46:37.832Z,53.38
2022-07-31T18:51:37.868Z,53.18
2022-07-31T18:56:37.717Z,54.27
2022-07-31T19:01:37.750Z,54.79
2022-07-31T19:06:37.609Z,54.89
2022-07-31T19:11:37.572Z,55.41
2022-07-31T19:16:37.471Z,55.51
2022-07-31T19:21:41.964Z,56.11
2022-07-31T19:26:38.415Z,56.04
2022-07-31T19:31:37.286Z,55.94
2022-07-31T19:36:37.282Z,56.13
2022-07-31T19:41:37.232Z,55.87
2022-07-31T19:46:37.133Z,56.16
2022-07-31T19:51:37.059Z,57.06
2022-07-31T19:56:37.011Z,56.29
2022-07-31T20:01:36.951Z,55.79
2022-07-31T20:06:36.877Z,55.29
2022-07-31T20:11:36.772Z,55.42
2022-07-31T20:16:36.717Z,55.52
2022-07-31T20:21:36.637Z,55.22
2022-07-31T20:26:36.590Z,55.42
2022-07-31T20:31:36.536Z,56.02
2022-07-31T20:36:36.476Z,55.62
2022-07-31T20:41:36.408Z,55.44
2022-07-31T20:46:36.341Z,55.65
2022-07-31T20:51:36.270Z,55.65
2022-07-31T20:56:36.213Z,55.25
2022-07-31T21:01:36.190Z,55.55
2022-07-31T21:06:36.114Z,55.77
2022-07-31T21:11:36.113Z,56.07
2022-07-31T21:16:35.996Z,56.07
2022-07-31T21:21:35.927Z,56.27
2022-07-31T21:26:35.869Z,56.27
2022-07-31T21:31:35.801Z,56.20
2022-07-31T21:36:36.720Z,56.20
2022-07-31T21:41:35.689Z,56.30
2022-07-31T21:46:35.602Z,56.40
2022-07-31T21:51:35.540Z,56.20
2022-07-31T21:56:35.465Z,57.19
2022-07-31T22:01:35.445Z,57.69
2022-07-31T22:06:35.347Z,58.58
2022-07-31T22:11:35.269Z,58.51
2022-07-31T22:16:35.218Z,58.61
2022-07-31T22:21:35.151Z,58.41
2022-07-31T22:26:35.090Z,58.41
2022-07-31T22:31:35.013Z,58.22
2022-07-31T22:36:34.964Z,58.04
2022-07-31T22:41:34.996Z,58.34
2022-07-31T22:46:34.971Z,58.34
2022-07-31T22:51:38.399Z,59.14
2022-07-31T22:56:34.736Z,59.06
2022-07-31T23:01:34.681Z,59.17
2022-07-31T23:06:34.630Z,59.06
2022-07-31T23:11:34.554Z,59.17
2022-07-31T23:16:34.462Z,60.16
2022-07-31T23:21:34.417Z,60.16
2022-07-31T23:26:34.351Z,59.99
2022-07-31T23:31:34.365Z,60.49
2022-07-31T23:36:34.220Z,60.39
2022-07-31T23:41:34.157Z,60.92
2022-07-31T23:46:34.194Z,61.11
2022-07-31T23:51:34.027Z,61.02
2022-07-31T23:56:33.997Z,61.55
